ראשי / חיפושים אחרונים

חיפושים אחרונים

לוחית
סוג רכב
דגם
שנה
תאריך חיפוש
שעת חיפוש
37848803 וויסדום סין - 2024 03/09/2026 13:48:16
1043761 האמר ארהב" HUMMER H3 SUV 2006 03/09/2026 13:48:15
1159638 סוזוקי יפן JIMNY 2016 03/09/2026 13:48:14
2912811 יונדאי קוריאה הדרומית IX35 2013 03/09/2026 13:48:11
2007051 דאף-הולנד - 2003 03/09/2026 13:48:11
6999039 יונדאי צ'כיה TUCSON 2016 03/09/2026 13:48:10
8587974 קיה קוריאה הדרומית PICANTO 2011 03/09/2026 13:48:08
45944904 סיטרואן ספרד BERLINGO 2026 03/09/2026 13:48:08
4050055 מזדה יפן MX-5 2017 03/09/2026 13:48:07
6905454 ב מ וו ארהב" X3 XDRIVE 28I 2015 03/09/2026 13:48:06
21039704 טויוטה יפן RAV4 HYBRID 2025 03/09/2026 13:48:05
1412163 טויוטה יפן LAND CRUISER 2008 03/09/2026 13:48:05
2912811 יונדאי קוריאה הדרומית IX35 2013 03/09/2026 13:48:00
4379612 פולקסווגן ספרד POLO 2013 03/09/2026 13:48:00
48551903 יונדאי קוריאה הדרומית ELANTRA HEV 2023 03/09/2026 13:47:59
2961361 טויוטה דרום אפריקה D/F HILUX VIGO 2007 03/09/2026 13:47:58
37911103 גולדן דרגון סי - 2023 03/09/2026 13:47:56
3780569 מזדה יפן MAZDA 2 2009 03/09/2026 13:47:55
49883001 סקודה צ'כיה RAPID 2018 03/09/2026 13:47:50
5683280 פיגו איטליה - 2016 03/09/2026 13:47:47
81513903 סיאט צ'כיה ATECA 2024 03/09/2026 13:47:43
81513903 סיאט צ'כיה ATECA 2024 03/09/2026 13:47:42
58657901 רנו טורקיה GRAND COUPE 2018 03/09/2026 13:47:41
1707976 מזדה יפן CX-5 2013 03/09/2026 13:47:38
9589257 קרייזלר ארהב" - 2004 03/09/2026 13:47:35
74298701 אאודי ספרד A1 SPORTBACK 2019 03/09/2026 13:47:33
16514102 לקסוס יפן LEXUS ES300H 2020 03/09/2026 13:47:28
39643803 מזדה יפן MAZDA CX-5 2023 03/09/2026 13:47:23
5564612 פולקסווגן גרמניה GOLF 2013 03/09/2026 13:47:21
2927816 רנו צרפת קליאו 2 INR אוט'+כא" 1996 03/09/2026 13:47:21
68775002 פורשה גרמניה 911 CARRERA GTS 2023 03/09/2026 13:47:20
45944904 סיטרואן ספרד BERLINGO 2026 03/09/2026 13:47:19
4050055 מזדה יפן MX-5 2017 03/09/2026 13:47:17
6495480 פיג'ו ספרד 301 2017 03/09/2026 13:47:15
76537703 רנו טורקיה MEGANE 2024 03/09/2026 13:47:13
8247030 פיג'ו צ'כיה 108 2015 03/09/2026 13:47:13
4330573 פיג'ו צ'כיה 107 2010 03/09/2026 13:47:11
2912811 יונדאי קוריאה הדרומית IX35 2013 03/09/2026 13:47:09
7897870 סיאט ספרד IBIZA 2010 03/09/2026 13:47:06
23838004 מרצדס ארהב" AMG GLE53 COUPE 2025 03/09/2026 13:47:01
1412163 טויוטה יפן LAND CRUISER 2008 03/09/2026 13:46:58
9189862 פולקסווגן מכסי JETTA 2007 03/09/2026 13:46:56
5655170 וולבו בלגיה S60 2009 03/09/2026 13:46:54
37977002 ב מ וו ארהב" X5 XDRIVE45E 2021 03/09/2026 13:46:51
8508566 טויוטה יפן COROLLA 2009 03/09/2026 13:46:51
1231075 סיטרואן צרפת C3 2011 03/09/2026 13:46:50
4283171 פורד תורכיה - 2010 03/09/2026 13:46:48
85506203 מזדה תאילנד MAZDA 2 2024 03/09/2026 13:46:46
9435055 בנטלי בריטניה - 1992 03/09/2026 13:46:44
40688603 סקודה צ'כיה KAMIQ 2023 03/09/2026 13:46:41
1555564 מזדה יפן MAZDA 2 2008 03/09/2026 13:46:40
4717923 פיג'ו צרפת 306 2000 03/09/2026 13:46:38
1133111 יונדאי קוריאה הדרומית I35 2013 03/09/2026 13:46:35
1133111 יונדאי קוריאה הדרומית I35 2013 03/09/2026 13:46:34
73855103 מ.ג סין ZS EV 2024 03/09/2026 13:46:34
34651202 הונדה בריטניה CIVIC 5D 1.5 2021 03/09/2026 13:46:34
2874361 טויוטה יפן COROLLA 2007 03/09/2026 13:46:33
3576562 מזדה יפן MAZDA3 2007 03/09/2026 13:46:32
21039704 טויוטה יפן RAV4 HYBRID 2025 03/09/2026 13:46:31
71496201 ב מ וו גרמניה 530E IPERFORMAN 2019 03/09/2026 13:46:31
8651566 טויוטה יפן COROLLA 2009 03/09/2026 13:46:30
3128269 מזדה יפן MAZDA3 SPORT 2009 03/09/2026 13:46:30
9542469 טויוטה ארהב" - 2009 03/09/2026 13:46:30
65093201 סיטרואן צרפת JUMPY 2020 03/09/2026 13:46:29
8110274 קיה קוריאה הדרומית CARENS 2011 03/09/2026 13:46:24
9878176 מרצדס בנץ גרמנ - 2014 03/09/2026 13:46:23
9912300 האמר שוודיה - 2003 03/09/2026 13:46:22
2537239 סובארו יפן XV 2017 03/09/2026 13:46:21
21039704 טויוטה יפן RAV4 HYBRID 2025 03/09/2026 13:46:20
1451852 טויוטה צ'כיה AYGO 2013 03/09/2026 13:46:16
4178475 מזדה יפן MAZDA 3 2012 03/09/2026 13:46:14
1067187 הונדה מקסיקו HR-V 2017 03/09/2026 13:46:11
77156603 סיאט ספרד CUPRA 2024 03/09/2026 13:46:09
9348651 מיצובישי יפן SPACE WAGON 2003 03/09/2026 13:46:08
5683280 פיגו איטליה - 2016 03/09/2026 13:46:07
77156603 סיאט ספרד CUPRA 2024 03/09/2026 13:46:06
19578402 קרייזלר ארהב" WRANGLER UNLIMI 2021 03/09/2026 13:46:05
65277503 סיטרואן ספרד C4X 2024 03/09/2026 13:46:04
5683280 פיגו איטליה - 2016 03/09/2026 13:46:04
1133111 יונדאי קוריאה הדרומית I35 2013 03/09/2026 13:46:03
1133111 יונדאי קוריאה הדרומית I35 2013 03/09/2026 13:46:02
68902803 קיה קוריאה הדרומית SORENTO 2024 03/09/2026 13:46:00
23838004 מרצדס ארהב" AMG GLE53 COUPE 2025 03/09/2026 13:46:00
5778138 סקודה צ'כיה OCTAVIA 2017 03/09/2026 13:45:58
7463462 מזדה יפן MAZDA 6 2007 03/09/2026 13:45:56
9907131 ניסאן ארהב" ALTIMA 2015 03/09/2026 13:45:56
75345402 אופל ספרד CORSA 2022 03/09/2026 13:45:54
65277503 סיטרואן ספרד C4X 2024 03/09/2026 13:45:54
15562604 טויוטה יפן COROLLA CROSS 2025 03/09/2026 13:45:52
4199416 סיטרואן צרפת XANTIA 1997 03/09/2026 13:45:49
7225253 אאודי גרמניה A4 2015 03/09/2026 13:45:48
1133111 יונדאי קוריאה הדרומית I35 2013 03/09/2026 13:45:47
9914761 קרייזלר ארהב" - 2008 03/09/2026 13:45:44
1614139 סובארו יפן IMPREZA 2016 03/09/2026 13:45:44
78156802 יונדאי קוריאה הדרומית IONIQ HYBRID 2022 03/09/2026 13:45:44
21133601 רנו צרפת - 2018 03/09/2026 13:45:38
4253976 יונדאי הודו I10 2011 03/09/2026 13:45:36
37105203 שברולט ארהב" - 2024 03/09/2026 13:45:34
1133111 יונדאי קוריאה הדרומית I35 2013 03/09/2026 13:45:33
3778265 שברולט קוריאה הדרומית OPTRA 2008 03/09/2026 13:45:27
60360701 ב מ וו גרמניה 530E IPERFORMAN 2019 03/09/2026 13:45:26
1464533 רנו ספרד MEGANE 2015 03/09/2026 13:45:24
93650501 רנו טורקיה FLUENCE 2016 03/09/2026 13:45:23
9946031 ניסאן הודו MICRA 2015 03/09/2026 13:45:23
2636076 מזדה יפן CX5 2013 03/09/2026 13:45:23
8622626 רנו טורקיה FLUENCE 2016 03/09/2026 13:45:22
47083701 גולדן דרגון סי - 2018 03/09/2026 13:45:20
7557263 טויוטה יפן COROLLA 2008 03/09/2026 13:45:19
1359000 ב מ וו גרמניה - 1990 03/09/2026 13:45:18
6717476 פולקסווגן ספרד POLO 2012 03/09/2026 13:45:17
3684635 מיצובישי יפן PAJERO 2001 03/09/2026 13:45:17
1123768 סוזוקי יפן JIMNY 2009 03/09/2026 13:45:15
53217201 יונדאי קוריאה הדרומית SONATA HYBRID 2018 03/09/2026 13:45:13
4255031 מיצובישי תאילנד ATTRAGE 2014 03/09/2026 13:45:10
1026556 טויוטה יפן YARIS VERSO 2004 03/09/2026 13:45:08
5683280 פיגו איטליה - 2016 03/09/2026 13:45:07
2362312 סקודה צ'כיה OCTAVIA 2012 03/09/2026 13:45:06
59561103 צ'רי סין FX EV 2024 03/09/2026 13:45:05
77156603 סיאט ספרד CUPRA 2024 03/09/2026 13:45:04
1556986 מרוטי סוזוקי הודו BALENO 2017 03/09/2026 13:45:03
39001201 אאודי גרמניה S5 SPORTBACK 2018 03/09/2026 13:45:02
31763002 סיאט ספרד IBIZA 2020 03/09/2026 13:45:02
16429303 מיצובישי תאילנד SPACE STAR 2022 03/09/2026 13:45:00
46024401 לקסוס יפן LEXUS CT200H 2019 03/09/2026 13:44:57
7651233 סוזוקי הונגריה SX4 CROSSOVER 2015 03/09/2026 13:44:54
7651233 סוזוקי הונגריה SX4 CROSSOVER 2015 03/09/2026 13:44:54
75416004 מ.ג סין ZS 2026 03/09/2026 13:44:51
2320100 ג'אווה צ'כיה - 1992 03/09/2026 13:44:48
65986901 דאף אנגליה - 2020 03/09/2026 13:44:48
61066701 מזדה יפן CX-5 2020 03/09/2026 13:44:47
86268301 רנו ספרד MEGANE 2020 03/09/2026 13:44:46
1355231 מיצובישי יפן OUTLANDER 2014 03/09/2026 13:44:45
5596137 יונדאי טורקיה I20 2016 03/09/2026 13:44:43
9206851 יונדאי קוריאה הדרומית GETZ 2003 03/09/2026 13:44:42
55553101 מרצדס ארהב" GLE350D 4MATIC 2018 03/09/2026 13:44:39
5954078 שברולט קוריאה הדרומית CRUZE 1.6 LS 2012 03/09/2026 13:44:38
3871834 יונדאי קוריאה הדרומית I35 2015 03/09/2026 13:44:36
7651233 סוזוקי הונגריה SX4 CROSSOVER 2015 03/09/2026 13:44:34
4238912 פולקסווגן גרמניה GOLF 2013 03/09/2026 13:44:34
1134137 טויוטה טורקיה COROLLA 2016 03/09/2026 13:44:34
92325901 מרצדס גרמניה C200 D 2017 03/09/2026 13:44:31
57625802 סיטרואן ספרד C4 SPACETOURER 2021 03/09/2026 13:44:24
60385303 פיאט איטליה - 2024 03/09/2026 13:44:19
65639202 טויוטה יפן RAV 4 HYBRID 2021 03/09/2026 13:44:18
9499228 סוזוקי יפן ליאנה 2005 03/09/2026 13:44:17
4623150 אאודי גרמניה A3 2003 03/09/2026 13:44:17
4909934 סקודה צ'כיה OCTAVIA 2015 03/09/2026 13:44:16
88013903 סיטרואן ספרד BERLINGO 2025 03/09/2026 13:44:14
2408565 מזדה יפן MAZDA 3 2008 03/09/2026 13:44:14
67000603 טויוטה טורקיה TOYOTA C-HR 2024 03/09/2026 13:44:12
9559633 יונדאי קוריאה הדרומית I25 2015 03/09/2026 13:44:11
4036667 סקודה צ'כיה OCTAVIA 2010 03/09/2026 13:44:10
8975472 רנו טורקיה FLUENCE 2011 03/09/2026 13:44:09
56797202 סקודה צ'כיה FABIA 2021 03/09/2026 13:44:08
71037802 טויוטה טורקיה COROLLA HSD SDN 2021 03/09/2026 13:44:07
9090552 סקודה צ'כיה FABIA 2013 03/09/2026 13:44:06
45902502 סקודה צ'כיה OCTAVIA 2021 03/09/2026 13:44:06
9090552 סקודה צ'כיה FABIA 2013 03/09/2026 13:44:04
73615302 קיה קוריאה הדרומית NIRO PHEV 2021 03/09/2026 13:44:04
1412537 טויוטה יפן LAND CRUISER 2016 03/09/2026 13:44:03
4488852 ניסאן יפן INFINITI 2014 03/09/2026 13:44:00
6161265 מזדה יפן MAZDA 6 2008 03/09/2026 13:43:54
23389401 סקודה צ'כיה NEW OCTAVIA 2017 03/09/2026 13:43:53
13281103 סיטרואן ספרד BERLINGO 2022 03/09/2026 13:43:53
57507003 מרצדס הונגריה CLA180 2024 03/09/2026 13:43:49
73615302 קיה קוריאה הדרומית NIRO PHEV 2021 03/09/2026 13:43:48
20558501 ניסאן ארהב" INFINITI QX60 2018 03/09/2026 13:43:43
1246162 טויוטה טורקיה COROLLA 2007 03/09/2026 13:43:43
1419550 טויוטה יפן HILUX 2003 03/09/2026 13:43:41
51531502 שברולט ארהב" TRAVERSE 2021 03/09/2026 13:43:38
36066201 רנלי סין - 2018 03/09/2026 13:43:38
28354403 בי ווי די סין ATTO 3 2022 03/09/2026 13:43:37
28354403 בי ווי די סין ATTO 3 2022 03/09/2026 13:43:35
1083061 שברולט קוריאה הדרומית AVEO 2007 03/09/2026 13:43:33
34281601 מזדה יפן MAZDA 3 2018 03/09/2026 13:43:31
4018363 ניסאן בריטניה QASHQAI 2008 03/09/2026 13:43:31
53188403 מסגרית ר.אליאס - 2023 03/09/2026 13:43:28
1125668 סוזוקי יפן SWIFT 2009 03/09/2026 13:43:28
2401231 יונדאי קוריאה הדרומית I35 2014 03/09/2026 13:43:24
1642723 סובארו יפן לגאסי 0081 רגיל 1999 03/09/2026 13:43:23
71426301 רובר בריטניה DISCOVRY SPORT 2020 03/09/2026 13:43:22
4735811 יונדאי צ'כיה I30 2013 03/09/2026 13:43:19
4648916 סיטרואן צרפת BERLINGO X 1.9 1998 03/09/2026 13:43:19
94134701 פורד ארהב" - 2024 03/09/2026 13:43:16
77158003 אאודי סלובקיה Q7 2024 03/09/2026 13:43:15
88111802 מיצובישי יפן OUTLANDER 2022 03/09/2026 13:43:11
88463503 זיקר סין ZEEKR X 2024 03/09/2026 13:43:11
4053570 סוזוקי יפן GRAND VITARA 2010 03/09/2026 13:43:11
36846703 איסוזו תאילנד D-MAX 2024 03/09/2026 13:43:10
9090552 סקודה צ'כיה FABIA 2013 03/09/2026 13:43:10
62983703 מרצדס בנץ גרמנ - 2024 03/09/2026 13:43:09
1057238 סוזוקי הונגריה VITARA 2016 03/09/2026 13:43:08
9090552 סקודה צ'כיה FABIA 2013 03/09/2026 13:43:05
40975203 בי ווי די סין ATTO 3 2023 03/09/2026 13:43:03
65291902 קיה קוריאה הדרומית STONIC 2021 03/09/2026 13:42:57
89908002 ב מ וו ארהב" X3 XDRIVE20I 2022 03/09/2026 13:42:51
65419801 ימהה צרפת - 2019 03/09/2026 13:42:50
35067804 סקודה צ'כיה KAMIQ FL 2025 03/09/2026 13:42:47
3845337 מיצובישי תאילנד ATTRAGE 2016 03/09/2026 13:42:46
1038910 טויוטה יפן COROLLA 2001 03/09/2026 13:42:43
וואטסאפ